Belgrade, Montana
Current Conditions -  °F | °C
As of 12:56 AM on Saturday 20 Dec 2014 (Local Time) from KBZN Reporting Station
Broken Clouds Broken Clouds  
Wind Chill: 24°   Ceiling: 9500
Heat Index: 31°   Visibility: 10mi
Dew Point: 27°   Wind: 7mph
Humidity: 85%   Direction: 40°NE
Pressure: 29.97"   Gusts: NA
Location:  45.78°N, 111.18°W
Report Text: KBZN 200756Z AUTO 04006KT 10SM BKN095 M01/M03 A2997 RMK AO2 SLP178 T10061028
Loading
Personal Weather Stations






























Interactive Weather Map New forecast layout! Learn more

10-Day Weather Forecast

Advertisements
Track Severe Weather on mobile